sensor_id;sensor_type;location;lat;lon;timestamp;P1;durP1;ratioP1;P2;durP2;ratioP2
40951;SDS011;26682;51.660;19.338;2023-02-22T00:01:31;33.15;;;11.50;;
40951;SDS011;26682;51.660;19.338;2023-02-22T00:04:18;29.65;;;9.18;;
40951;SDS011;26682;51.660;19.338;2023-02-22T00:07:02;24.85;;;9.02;;
40951;SDS011;26682;51.660;19.338;2023-02-22T00:09:44;24.13;;;8.77;;
40951;SDS011;26682;51.660;19.338;2023-02-22T00:12:26;25.70;;;8.65;;
40951;SDS011;26682;51.660;19.338;2023-02-22T00:15:09;24.08;;;8.38;;
40951;SDS011;26682;51.660;19.338;2023-02-22T00:17:54;23.00;;;8.80;;
40951;SDS011;26682;51.660;19.338;2023-02-22T00:20:38;23.95;;;9.27;;
40951;SDS011;26682;51.660;19.338;2023-02-22T00:23:21;24.55;;;8.95;;
40951;SDS011;26682;51.660;19.338;2023-02-22T00:26:05;25.52;;;8.93;;
40951;SDS011;26682;51.660;19.338;2023-02-22T00:28:51;28.40;;;8.70;;
40951;SDS011;26682;51.660;19.338;2023-02-22T00:31:37;34.42;;;10.00;;
40951;SDS011;26682;51.660;19.338;2023-02-22T00:34:20;27.87;;;11.23;;
40951;SDS011;26682;51.660;19.338;2023-02-22T00:37:04;39.17;;;11.85;;
40951;SDS011;26682;51.660;19.338;2023-02-22T00:39:47;28.23;;;9.20;;
40951;SDS011;26682;51.660;19.338;2023-02-22T00:42:30;28.85;;;8.07;;
40951;SDS011;26682;51.660;19.338;2023-02-22T00:45:15;23.23;;;7.72;;
40951;SDS011;26682;51.660;19.338;2023-02-22T00:48:04;25.63;;;8.10;;
40951;SDS011;26682;51.660;19.338;2023-02-22T00:50:47;22.27;;;8.52;;
40951;SDS011;26682;51.660;19.338;2023-02-22T00:53:29;25.05;;;7.85;;
40951;SDS011;26682;51.660;19.338;2023-02-22T00:56:12;22.20;;;6.28;;
40951;SDS011;26682;51.660;19.338;2023-02-22T00:58:54;19.30;;;6.18;;
40951;SDS011;26682;51.660;19.338;2023-02-22T01:01:37;19.05;;;6.38;;
40951;SDS011;26682;51.660;19.338;2023-02-22T01:04:19;30.55;;;7.57;;
40951;SDS011;26682;51.660;19.338;2023-02-22T01:07:04;28.85;;;6.93;;
40951;SDS011;26682;51.660;19.338;2023-02-22T01:09:46;23.00;;;6.05;;
40951;SDS011;26682;51.660;19.338;2023-02-22T01:12:31;27.92;;;5.95;;
40951;SDS011;26682;51.660;19.338;2023-02-22T01:15:13;22.95;;;6.90;;
40951;SDS011;26682;51.660;19.338;2023-02-22T01:17:57;21.80;;;6.07;;
40951;SDS011;26682;51.660;19.338;2023-02-22T01:20:40;24.70;;;6.60;;
40951;SDS011;26682;51.660;19.338;2023-02-22T01:23:22;21.75;;;6.30;;
40951;SDS011;26682;51.660;19.338;2023-02-22T01:26:05;27.63;;;6.15;;
40951;SDS011;26682;51.660;19.338;2023-02-22T01:28:47;26.58;;;6.35;;
40951;SDS011;26682;51.660;19.338;2023-02-22T01:31:29;26.52;;;5.88;;
40951;SDS011;26682;51.660;19.338;2023-02-22T01:34:12;20.67;;;5.50;;
40951;SDS011;26682;51.660;19.338;2023-02-22T01:36:55;22.67;;;6.20;;
40951;SDS011;26682;51.660;19.338;2023-02-22T01:39:39;19.77;;;5.30;;
40951;SDS011;26682;51.660;19.338;2023-02-22T01:42:21;28.38;;;5.93;;
40951;SDS011;26682;51.660;19.338;2023-02-22T01:51:23;22.63;;;6.18;;
40951;SDS011;26682;51.660;19.338;2023-02-22T01:54:14;20.92;;;6.20;;
40951;SDS011;26682;51.660;19.338;2023-02-22T01:57:07;26.70;;;6.40;;
40951;SDS011;26682;51.660;19.338;2023-02-22T01:59:56;27.47;;;6.33;;
40951;SDS011;26682;51.660;19.338;2023-02-22T02:02:59;22.58;;;6.57;;
40951;SDS011;26682;51.660;19.338;2023-02-22T02:05:47;23.67;;;6.82;;
40951;SDS011;26682;51.660;19.338;2023-02-22T02:08:35;28.70;;;7.05;;
40951;SDS011;26682;51.660;19.338;2023-02-22T02:11:19;27.10;;;7.00;;
40951;SDS011;26682;51.660;19.338;2023-02-22T02:14:06;20.98;;;5.93;;
40951;SDS011;26682;51.660;19.338;2023-02-22T02:16:50;22.88;;;6.85;;
40951;SDS011;26682;51.660;19.338;2023-02-22T02:19:44;20.48;;;6.95;;
40951;SDS011;26682;51.660;19.338;2023-02-22T02:38:08;23.10;;;6.35;;
40951;SDS011;26682;51.660;19.338;2023-02-22T02:41:09;22.42;;;4.80;;
40951;SDS011;26682;51.660;19.338;2023-02-22T02:47:07;20.35;;;5.32;;
40951;SDS011;26682;51.660;19.338;2023-02-22T02:50:09;26.98;;;6.45;;
40951;SDS011;26682;51.660;19.338;2023-02-22T02:52:57;20.33;;;5.72;;
40951;SDS011;26682;51.660;19.338;2023-02-22T02:55:43;29.08;;;6.65;;
40951;SDS011;26682;51.660;19.338;2023-02-22T02:58:25;24.60;;;7.40;;
40951;SDS011;26682;51.660;19.338;2023-02-22T03:01:08;31.58;;;7.38;;
40951;SDS011;26682;51.660;19.338;2023-02-22T03:06:49;26.02;;;7.10;;
40951;SDS011;26682;51.660;19.338;2023-02-22T03:09:54;30.15;;;6.70;;
40951;SDS011;26682;51.660;19.338;2023-02-22T03:16:11;26.13;;;6.18;;
40951;SDS011;26682;51.660;19.338;2023-02-22T03:22:41;29.60;;;6.88;;
40951;SDS011;26682;51.660;19.338;2023-02-22T03:25:39;21.85;;;6.03;;
40951;SDS011;26682;51.660;19.338;2023-02-22T03:28:26;22.65;;;5.78;;
40951;SDS011;26682;51.660;19.338;2023-02-22T03:31:19;26.55;;;6.88;;
40951;SDS011;26682;51.660;19.338;2023-02-22T03:34:17;22.90;;;6.68;;
40951;SDS011;26682;51.660;19.338;2023-02-22T03:37:06;26.25;;;6.40;;
40951;SDS011;26682;51.660;19.338;2023-02-22T03:39:56;23.17;;;6.65;;
40951;SDS011;26682;51.660;19.338;2023-02-22T03:42:46;20.10;;;6.30;;
40951;SDS011;26682;51.660;19.338;2023-02-22T03:45:33;29.40;;;7.25;;
40951;SDS011;26682;51.660;19.338;2023-02-22T03:48:23;26.70;;;6.35;;
40951;SDS011;26682;51.660;19.338;2023-02-22T03:51:13;20.83;;;7.10;;
40951;SDS011;26682;51.660;19.338;2023-02-22T03:54:02;28.13;;;9.82;;
40951;SDS011;26682;51.660;19.338;2023-02-22T03:56:54;45.50;;;12.48;;
40951;SDS011;26682;51.660;19.338;2023-02-22T03:59:53;36.35;;;9.85;;
40951;SDS011;26682;51.660;19.338;2023-02-22T04:02:35;28.75;;;8.93;;
40951;SDS011;26682;51.660;19.338;2023-02-22T04:05:18;100.95;;;24.33;;
40951;SDS011;26682;51.660;19.338;2023-02-22T04:08:01;88.53;;;24.63;;
40951;SDS011;26682;51.660;19.338;2023-02-22T04:10:45;99.53;;;27.30;;
40951;SDS011;26682;51.660;19.338;2023-02-22T04:13:30;79.40;;;23.77;;
40951;SDS011;26682;51.660;19.338;2023-02-22T04:16:13;90.65;;;28.30;;
40951;SDS011;26682;51.660;19.338;2023-02-22T04:18:56;71.25;;;26.23;;
40951;SDS011;26682;51.660;19.338;2023-02-22T04:21:38;73.75;;;23.45;;
40951;SDS011;26682;51.660;19.338;2023-02-22T04:24:27;63.10;;;18.58;;
40951;SDS011;26682;51.660;19.338;2023-02-22T04:27:11;55.13;;;16.77;;
40951;SDS011;26682;51.660;19.338;2023-02-22T04:29:56;66.25;;;22.00;;
40951;SDS011;26682;51.660;19.338;2023-02-22T04:32:39;63.45;;;19.65;;
40951;SDS011;26682;51.660;19.338;2023-02-22T04:35:24;44.80;;;13.43;;
40951;SDS011;26682;51.660;19.338;2023-02-22T04:38:07;44.35;;;14.32;;
40951;SDS011;26682;51.660;19.338;2023-02-22T04:40:54;36.92;;;16.27;;
40951;SDS011;26682;51.660;19.338;2023-02-22T04:43:37;40.33;;;16.08;;
40951;SDS011;26682;51.660;19.338;2023-02-22T04:46:31;51.55;;;20.42;;
40951;SDS011;26682;51.660;19.338;2023-02-22T04:49:13;74.80;;;27.17;;
40951;SDS011;26682;51.660;19.338;2023-02-22T04:51:57;72.55;;;23.85;;
40951;SDS011;26682;51.660;19.338;2023-02-22T04:54:47;44.58;;;13.90;;
40951;SDS011;26682;51.660;19.338;2023-02-22T04:57:29;39.22;;;17.40;;
40951;SDS011;26682;51.660;19.338;2023-02-22T05:00:16;63.28;;;24.33;;
40951;SDS011;26682;51.660;19.338;2023-02-22T05:02:59;78.95;;;38.47;;
40951;SDS011;26682;51.660;19.338;2023-02-22T05:05:42;75.25;;;26.15;;
40951;SDS011;26682;51.660;19.338;2023-02-22T05:08:24;57.30;;;21.45;;
40951;SDS011;26682;51.660;19.338;2023-02-22T05:11:07;54.00;;;17.40;;
40951;SDS011;26682;51.660;19.338;2023-02-22T05:13:50;69.68;;;20.33;;
40951;SDS011;26682;51.660;19.338;2023-02-22T05:16:33;71.20;;;23.55;;
40951;SDS011;26682;51.660;19.338;2023-02-22T05:19:16;67.45;;;22.55;;
40951;SDS011;26682;51.660;19.338;2023-02-22T05:21:59;72.80;;;23.70;;
40951;SDS011;26682;51.660;19.338;2023-02-22T05:24:41;53.10;;;23.63;;
40951;SDS011;26682;51.660;19.338;2023-02-22T05:27:24;54.40;;;19.23;;
40951;SDS011;26682;51.660;19.338;2023-02-22T05:30:07;41.42;;;15.43;;
40951;SDS011;26682;51.660;19.338;2023-02-22T05:32:52;37.38;;;13.43;;
40951;SDS011;26682;51.660;19.338;2023-02-22T05:35:34;38.33;;;13.40;;
40951;SDS011;26682;51.660;19.338;2023-02-22T05:38:18;41.05;;;12.38;;
40951;SDS011;26682;51.660;19.338;2023-02-22T05:41:00;36.45;;;12.13;;
40951;SDS011;26682;51.660;19.338;2023-02-22T05:43:42;49.67;;;16.70;;
40951;SDS011;26682;51.660;19.338;2023-02-22T05:46:24;56.58;;;27.98;;
40951;SDS011;26682;51.660;19.338;2023-02-22T05:49:07;63.13;;;31.17;;
40951;SDS011;26682;51.660;19.338;2023-02-22T05:51:49;66.20;;;33.72;;
40951;SDS011;26682;51.660;19.338;2023-02-22T05:54:32;66.32;;;31.10;;
40951;SDS011;26682;51.660;19.338;2023-02-22T05:57:14;57.58;;;25.88;;
40951;SDS011;26682;51.660;19.338;2023-02-22T05:59:57;60.83;;;22.58;;
40951;SDS011;26682;51.660;19.338;2023-02-22T06:02:39;62.35;;;24.90;;
40951;SDS011;26682;51.660;19.338;2023-02-22T06:05:22;67.05;;;29.23;;
40951;SDS011;26682;51.660;19.338;2023-02-22T06:08:05;69.90;;;31.27;;
40951;SDS011;26682;51.660;19.338;2023-02-22T06:10:48;70.95;;;30.50;;
40951;SDS011;26682;51.660;19.338;2023-02-22T06:13:31;72.85;;;31.67;;
40951;SDS011;26682;51.660;19.338;2023-02-22T06:16:14;72.60;;;30.85;;
40951;SDS011;26682;51.660;19.338;2023-02-22T06:18:56;79.05;;;29.20;;
40951;SDS011;26682;51.660;19.338;2023-02-22T06:21:47;82.55;;;33.40;;
40951;SDS011;26682;51.660;19.338;2023-02-22T06:24:30;77.90;;;34.58;;
40951;SDS011;26682;51.660;19.338;2023-02-22T06:27:13;100.30;;;46.67;;
40951;SDS011;26682;51.660;19.338;2023-02-22T06:29:55;97.20;;;47.53;;
40951;SDS011;26682;51.660;19.338;2023-02-22T06:32:38;86.07;;;40.22;;
40951;SDS011;26682;51.660;19.338;2023-02-22T06:35:20;82.07;;;36.53;;
40951;SDS011;26682;51.660;19.338;2023-02-22T06:38:03;92.47;;;35.83;;
40951;SDS011;26682;51.660;19.338;2023-02-22T06:40:45;87.85;;;38.08;;
40951;SDS011;26682;51.660;19.338;2023-02-22T06:43:28;73.18;;;34.35;;
40951;SDS011;26682;51.660;19.338;2023-02-22T06:46:10;57.53;;;27.98;;
40951;SDS011;26682;51.660;19.338;2023-02-22T06:48:53;66.55;;;31.15;;
40951;SDS011;26682;51.660;19.338;2023-02-22T06:51:35;77.07;;;38.15;;
40951;SDS011;26682;51.660;19.338;2023-02-22T06:54:18;80.00;;;36.88;;
40951;SDS011;26682;51.660;19.338;2023-02-22T06:57:01;80.20;;;30.98;;
40951;SDS011;26682;51.660;19.338;2023-02-22T06:59:44;72.95;;;39.13;;
40951;SDS011;26682;51.660;19.338;2023-02-22T07:02:27;61.50;;;28.10;;
40951;SDS011;26682;51.660;19.338;2023-02-22T07:05:10;70.25;;;32.83;;
40951;SDS011;26682;51.660;19.338;2023-02-22T07:07:54;65.28;;;27.60;;
40951;SDS011;26682;51.660;19.338;2023-02-22T07:10:43;55.10;;;23.38;;
40951;SDS011;26682;51.660;19.338;2023-02-22T07:13:25;58.20;;;24.67;;
40951;SDS011;26682;51.660;19.338;2023-02-22T07:16:07;50.38;;;18.65;;
40951;SDS011;26682;51.660;19.338;2023-02-22T07:18:50;34.33;;;15.77;;
40951;SDS011;26682;51.660;19.338;2023-02-22T07:21:32;32.83;;;14.93;;
40951;SDS011;26682;51.660;19.338;2023-02-22T07:24:15;43.40;;;17.85;;
40951;SDS011;26682;51.660;19.338;2023-02-22T07:26:59;41.83;;;16.05;;
40951;SDS011;26682;51.660;19.338;2023-02-22T07:29:42;41.22;;;16.85;;
40951;SDS011;26682;51.660;19.338;2023-02-22T07:32:25;42.17;;;14.23;;
40951;SDS011;26682;51.660;19.338;2023-02-22T07:35:15;43.88;;;14.45;;
40951;SDS011;26682;51.660;19.338;2023-02-22T07:37:58;32.95;;;12.35;;
40951;SDS011;26682;51.660;19.338;2023-02-22T07:40:40;30.67;;;13.13;;
40951;SDS011;26682;51.660;19.338;2023-02-22T07:43:24;18.23;;;7.20;;
40951;SDS011;26682;51.660;19.338;2023-02-22T07:46:07;21.05;;;9.52;;
40951;SDS011;26682;51.660;19.338;2023-02-22T07:48:50;23.25;;;9.48;;
40951;SDS011;26682;51.660;19.338;2023-02-22T07:51:32;21.33;;;9.82;;
40951;SDS011;26682;51.660;19.338;2023-02-22T07:54:14;17.85;;;6.93;;
40951;SDS011;26682;51.660;19.338;2023-02-22T07:56:56;13.27;;;5.63;;
40951;SDS011;26682;51.660;19.338;2023-02-22T07:59:39;14.90;;;6.35;;
40951;SDS011;26682;51.660;19.338;2023-02-22T08:02:24;12.20;;;5.07;;
40951;SDS011;26682;51.660;19.338;2023-02-22T08:05:07;19.85;;;8.73;;
40951;SDS011;26682;51.660;19.338;2023-02-22T08:07:51;15.25;;;6.82;;
40951;SDS011;26682;51.660;19.338;2023-02-22T08:10:34;12.40;;;5.85;;
40951;SDS011;26682;51.660;19.338;2023-02-22T08:13:17;18.80;;;10.13;;
40951;SDS011;26682;51.660;19.338;2023-02-22T08:16:00;24.52;;;11.48;;
40951;SDS011;26682;51.660;19.338;2023-02-22T08:18:43;16.13;;;8.93;;
40951;SDS011;26682;51.660;19.338;2023-02-22T08:21:25;19.35;;;7.88;;
40951;SDS011;26682;51.660;19.338;2023-02-22T08:24:08;15.57;;;7.60;;
40951;SDS011;26682;51.660;19.338;2023-02-22T08:26:50;17.98;;;9.95;;
40951;SDS011;26682;51.660;19.338;2023-02-22T08:29:32;18.48;;;9.15;;
40951;SDS011;26682;51.660;19.338;2023-02-22T08:32:15;19.52;;;7.95;;
40951;SDS011;26682;51.660;19.338;2023-02-22T08:34:58;14.70;;;7.70;;
40951;SDS011;26682;51.660;19.338;2023-02-22T08:37:42;18.25;;;9.80;;
40951;SDS011;26682;51.660;19.338;2023-02-22T08:40:26;13.02;;;6.68;;
40951;SDS011;26682;51.660;19.338;2023-02-22T08:43:12;11.07;;;5.45;;
40951;SDS011;26682;51.660;19.338;2023-02-22T08:45:54;14.48;;;6.22;;
40951;SDS011;26682;51.660;19.338;2023-02-22T08:48:44;11.10;;;5.10;;
40951;SDS011;26682;51.660;19.338;2023-02-22T08:51:33;11.93;;;4.78;;
40951;SDS011;26682;51.660;19.338;2023-02-22T08:54:17;10.02;;;5.07;;
40951;SDS011;26682;51.660;19.338;2023-02-22T08:56:59;9.00;;;4.00;;
40951;SDS011;26682;51.660;19.338;2023-02-22T08:59:42;14.55;;;4.97;;
40951;SDS011;26682;51.660;19.338;2023-02-22T09:02:24;13.65;;;4.85;;
40951;SDS011;26682;51.660;19.338;2023-02-22T09:05:07;11.38;;;4.75;;
40951;SDS011;26682;51.660;19.338;2023-02-22T09:07:49;14.13;;;6.30;;
40951;SDS011;26682;51.660;19.338;2023-02-22T09:10:32;13.98;;;6.35;;
40951;SDS011;26682;51.660;19.338;2023-02-22T09:13:15;14.73;;;6.38;;
40951;SDS011;26682;51.660;19.338;2023-02-22T09:15:57;15.38;;;5.22;;
40951;SDS011;26682;51.660;19.338;2023-02-22T09:18:40;14.75;;;5.47;;
40951;SDS011;26682;51.660;19.338;2023-02-22T09:21:25;10.00;;;3.83;;
40951;SDS011;26682;51.660;19.338;2023-02-22T09:24:07;11.68;;;4.28;;
40951;SDS011;26682;51.660;19.338;2023-02-22T09:26:50;11.50;;;5.50;;
40951;SDS011;26682;51.660;19.338;2023-02-22T09:29:35;15.40;;;5.32;;
40951;SDS011;26682;51.660;19.338;2023-02-22T09:32:18;12.57;;;4.30;;
40951;SDS011;26682;51.660;19.338;2023-02-22T09:35:00;12.27;;;4.82;;
40951;SDS011;26682;51.660;19.338;2023-02-22T09:37:43;9.20;;;3.42;;
40951;SDS011;26682;51.660;19.338;2023-02-22T09:40:27;9.25;;;3.47;;
40951;SDS011;26682;51.660;19.338;2023-02-22T09:49:12;9.95;;;4.75;;
40951;SDS011;26682;51.660;19.338;2023-02-22T09:52:16;11.35;;;3.33;;
40951;SDS011;26682;51.660;19.338;2023-02-22T09:55:09;8.40;;;3.47;;
40951;SDS011;26682;51.660;19.338;2023-02-22T09:58:44;11.05;;;4.30;;
40951;SDS011;26682;51.660;19.338;2023-02-22T10:01:30;8.38;;;3.55;;
40951;SDS011;26682;51.660;19.338;2023-02-22T10:04:23;17.73;;;6.13;;
40951;SDS011;26682;51.660;19.338;2023-02-22T10:07:28;19.05;;;6.07;;
40951;SDS011;26682;51.660;19.338;2023-02-22T10:10:18;45.03;;;14.77;;
40951;SDS011;26682;51.660;19.338;2023-02-22T10:15:58;10.73;;;3.95;;
40951;SDS011;26682;51.660;19.338;2023-02-22T10:24:53;38.73;;;15.57;;
40951;SDS011;26682;51.660;19.338;2023-02-22T10:27:43;10.38;;;3.72;;
40951;SDS011;26682;51.660;19.338;2023-02-22T10:30:57;13.38;;;4.28;;
40951;SDS011;26682;51.660;19.338;2023-02-22T10:33:46;20.48;;;4.93;;
40951;SDS011;26682;51.660;19.338;2023-02-22T10:36:33;11.85;;;4.55;;
40951;SDS011;26682;51.660;19.338;2023-02-22T10:39:24;31.63;;;14.43;;
40951;SDS011;26682;51.660;19.338;2023-02-22T10:42:10;14.38;;;3.92;;
40951;SDS011;26682;51.660;19.338;2023-02-22T10:44:52;14.27;;;5.97;;
40951;SDS011;26682;51.660;19.338;2023-02-22T10:47:34;15.30;;;3.95;;
40951;SDS011;26682;51.660;19.338;2023-02-22T10:50:18;11.93;;;4.95;;
40951;SDS011;26682;51.660;19.338;2023-02-22T10:53:01;26.75;;;9.30;;
40951;SDS011;26682;51.660;19.338;2023-02-22T10:59:02;15.63;;;7.10;;
40951;SDS011;26682;51.660;19.338;2023-02-22T11:01:47;24.60;;;7.82;;
40951;SDS011;26682;51.660;19.338;2023-02-22T11:04:30;16.20;;;5.90;;
40951;SDS011;26682;51.660;19.338;2023-02-22T11:07:34;9.95;;;4.72;;
40951;SDS011;26682;51.660;19.338;2023-02-22T11:10:21;12.68;;;4.38;;
40951;SDS011;26682;51.660;19.338;2023-02-22T11:13:35;13.13;;;3.95;;
40951;SDS011;26682;51.660;19.338;2023-02-22T11:16:19;13.35;;;5.13;;
40951;SDS011;26682;51.660;19.338;2023-02-22T11:24:57;10.63;;;4.22;;
40951;SDS011;26682;51.660;19.338;2023-02-22T11:27:43;13.27;;;5.25;;
40951;SDS011;26682;51.660;19.338;2023-02-22T11:30:28;13.38;;;5.68;;
40951;SDS011;26682;51.660;19.338;2023-02-22T11:36:04;13.63;;;4.40;;
40951;SDS011;26682;51.660;19.338;2023-02-22T11:38:55;9.30;;;4.80;;
40951;SDS011;26682;51.660;19.338;2023-02-22T11:41:41;15.70;;;5.45;;
40951;SDS011;26682;51.660;19.338;2023-02-22T11:44:28;16.13;;;6.43;;
40951;SDS011;26682;51.660;19.338;2023-02-22T11:47:12;11.15;;;4.53;;
40951;SDS011;26682;51.660;19.338;2023-02-22T11:49:55;20.10;;;8.75;;
40951;SDS011;26682;51.660;19.338;2023-02-22T11:52:41;31.70;;;13.38;;
40951;SDS011;26682;51.660;19.338;2023-02-22T11:55:34;14.82;;;6.68;;
40951;SDS011;26682;51.660;19.338;2023-02-22T12:07:50;14.65;;;7.63;;
40951;SDS011;26682;51.660;19.338;2023-02-22T12:11:04;18.92;;;7.72;;
40951;SDS011;26682;51.660;19.338;2023-02-22T12:14:08;16.63;;;7.22;;
40951;SDS011;26682;51.660;19.338;2023-02-22T12:26:49;11.55;;;5.05;;
40951;SDS011;26682;51.660;19.338;2023-02-22T12:29:41;18.02;;;7.45;;
40951;SDS011;26682;51.660;19.338;2023-02-22T12:32:47;9.60;;;5.13;;
40951;SDS011;26682;51.660;19.338;2023-02-22T12:35:35;12.35;;;5.18;;
40951;SDS011;26682;51.660;19.338;2023-02-22T12:41:15;13.38;;;7.38;;
40951;SDS011;26682;51.660;19.338;2023-02-22T12:44:16;12.70;;;5.72;;
40951;SDS011;26682;51.660;19.338;2023-02-22T12:47:03;10.55;;;5.40;;
40951;SDS011;26682;51.660;19.338;2023-02-22T12:53:00;9.43;;;5.50;;
40951;SDS011;26682;51.660;19.338;2023-02-22T12:59:09;10.18;;;5.25;;
40951;SDS011;26682;51.660;19.338;2023-02-22T13:05:01;11.93;;;5.70;;
40951;SDS011;26682;51.660;19.338;2023-02-22T13:13:43;10.90;;;5.88;;
40951;SDS011;26682;51.660;19.338;2023-02-22T13:22:27;12.35;;;7.38;;
40951;SDS011;26682;51.660;19.338;2023-02-22T13:25:16;13.32;;;6.03;;
40951;SDS011;26682;51.660;19.338;2023-02-22T13:34:32;13.25;;;6.93;;
40951;SDS011;26682;51.660;19.338;2023-02-22T13:40:42;16.50;;;7.68;;
40951;SDS011;26682;51.660;19.338;2023-02-22T13:53:09;10.93;;;4.95;;
40951;SDS011;26682;51.660;19.338;2023-02-22T13:55:59;13.50;;;6.35;;
40951;SDS011;26682;51.660;19.338;2023-02-22T13:58:46;9.45;;;5.10;;
40951;SDS011;26682;51.660;19.338;2023-02-22T14:01:38;14.73;;;7.68;;
40951;SDS011;26682;51.660;19.338;2023-02-22T14:09:59;9.23;;;3.45;;
40951;SDS011;26682;51.660;19.338;2023-02-22T14:12:47;9.63;;;4.10;;
40951;SDS011;26682;51.660;19.338;2023-02-22T14:15:32;9.50;;;6.05;;
40951;SDS011;26682;51.660;19.338;2023-02-22T14:18:16;14.93;;;8.18;;
40951;SDS011;26682;51.660;19.338;2023-02-22T14:21:12;28.33;;;18.05;;
40951;SDS011;26682;51.660;19.338;2023-02-22T14:24:04;12.82;;;8.23;;
40951;SDS011;26682;51.660;19.338;2023-02-22T14:26:54;17.08;;;8.88;;
40951;SDS011;26682;51.660;19.338;2023-02-22T14:29:49;24.30;;;10.25;;
40951;SDS011;26682;51.660;19.338;2023-02-22T14:32:36;14.70;;;6.50;;
40951;SDS011;26682;51.660;19.338;2023-02-22T14:35:19;20.17;;;10.95;;
40951;SDS011;26682;51.660;19.338;2023-02-22T14:38:15;22.58;;;9.70;;
40951;SDS011;26682;51.660;19.338;2023-02-22T14:41:00;15.65;;;9.27;;
40951;SDS011;26682;51.660;19.338;2023-02-22T14:43:44;16.45;;;9.45;;
40951;SDS011;26682;51.660;19.338;2023-02-22T14:46:27;21.80;;;13.52;;
40951;SDS011;26682;51.660;19.338;2023-02-22T14:49:13;23.30;;;12.05;;
40951;SDS011;26682;51.660;19.338;2023-02-22T14:52:00;28.95;;;15.63;;
40951;SDS011;26682;51.660;19.338;2023-02-22T14:54:54;27.42;;;13.60;;
40951;SDS011;26682;51.660;19.338;2023-02-22T14:57:48;27.98;;;15.35;;
40951;SDS011;26682;51.660;19.338;2023-02-22T15:00:51;24.38;;;13.07;;
40951;SDS011;26682;51.660;19.338;2023-02-22T15:03:38;25.33;;;14.82;;
40951;SDS011;26682;51.660;19.338;2023-02-22T15:06:24;50.17;;;26.85;;
40951;SDS011;26682;51.660;19.338;2023-02-22T15:09:14;28.10;;;16.70;;
40951;SDS011;26682;51.660;19.338;2023-02-22T15:14:49;22.58;;;13.40;;
40951;SDS011;26682;51.660;19.338;2023-02-22T15:17:54;25.33;;;14.63;;
40951;SDS011;26682;51.660;19.338;2023-02-22T15:20:39;30.73;;;16.40;;
40951;SDS011;26682;51.660;19.338;2023-02-22T15:23:26;24.75;;;13.65;;
40951;SDS011;26682;51.660;19.338;2023-02-22T15:26:45;29.27;;;15.57;;
40951;SDS011;26682;51.660;19.338;2023-02-22T15:29:42;20.67;;;12.95;;
40951;SDS011;26682;51.660;19.338;2023-02-22T15:32:33;19.13;;;11.25;;
40951;SDS011;26682;51.660;19.338;2023-02-22T15:38:16;21.27;;;12.23;;
40951;SDS011;26682;51.660;19.338;2023-02-22T15:41:01;18.98;;;10.55;;
40951;SDS011;26682;51.660;19.338;2023-02-22T15:44:03;14.07;;;10.18;;
40951;SDS011;26682;51.660;19.338;2023-02-22T15:47:03;23.92;;;15.98;;
40951;SDS011;26682;51.660;19.338;2023-02-22T15:53:22;17.25;;;9.60;;
40951;SDS011;26682;51.660;19.338;2023-02-22T15:56:09;90.88;;;50.08;;
40951;SDS011;26682;51.660;19.338;2023-02-22T15:59:01;29.35;;;17.70;;
40951;SDS011;26682;51.660;19.338;2023-02-22T16:01:52;17.48;;;12.00;;
40951;SDS011;26682;51.660;19.338;2023-02-22T16:04:35;27.52;;;15.45;;
40951;SDS011;26682;51.660;19.338;2023-02-22T16:07:17;106.07;;;55.65;;
40951;SDS011;26682;51.660;19.338;2023-02-22T16:10:02;30.63;;;18.60;;
40951;SDS011;26682;51.660;19.338;2023-02-22T16:13:03;23.08;;;14.27;;
40951;SDS011;26682;51.660;19.338;2023-02-22T16:22:22;21.50;;;12.93;;
40951;SDS011;26682;51.660;19.338;2023-02-22T16:28:02;26.35;;;16.75;;
40951;SDS011;26682;51.660;19.338;2023-02-22T16:31:07;36.90;;;20.55;;
40951;SDS011;26682;51.660;19.338;2023-02-22T16:33:51;41.15;;;22.88;;
40951;SDS011;26682;51.660;19.338;2023-02-22T16:36:45;37.88;;;22.95;;
40951;SDS011;26682;51.660;19.338;2023-02-22T16:39:30;43.72;;;28.25;;
40951;SDS011;26682;51.660;19.338;2023-02-22T16:42:18;54.47;;;27.90;;
40951;SDS011;26682;51.660;19.338;2023-02-22T16:45:05;60.72;;;30.67;;
40951;SDS011;26682;51.660;19.338;2023-02-22T16:47:49;47.38;;;25.23;;
40951;SDS011;26682;51.660;19.338;2023-02-22T16:50:34;37.67;;;22.80;;
40951;SDS011;26682;51.660;19.338;2023-02-22T16:53:17;38.47;;;22.13;;
40951;SDS011;26682;51.660;19.338;2023-02-22T16:56:03;39.15;;;23.77;;
40951;SDS011;26682;51.660;19.338;2023-02-22T16:58:49;30.92;;;20.02;;
40951;SDS011;26682;51.660;19.338;2023-02-22T17:01:34;32.53;;;19.80;;
40951;SDS011;26682;51.660;19.338;2023-02-22T17:04:22;33.55;;;20.27;;
40951;SDS011;26682;51.660;19.338;2023-02-22T17:07:06;47.38;;;25.42;;
40951;SDS011;26682;51.660;19.338;2023-02-22T17:09:50;40.22;;;23.27;;
40951;SDS011;26682;51.660;19.338;2023-02-22T17:12:32;52.10;;;27.50;;
40951;SDS011;26682;51.660;19.338;2023-02-22T17:15:16;35.95;;;21.63;;
40951;SDS011;26682;51.660;19.338;2023-02-22T17:18:10;35.90;;;20.33;;
40951;SDS011;26682;51.660;19.338;2023-02-22T17:21:03;34.50;;;22.23;;
40951;SDS011;26682;51.660;19.338;2023-02-22T17:23:46;43.75;;;23.95;;
40951;SDS011;26682;51.660;19.338;2023-02-22T17:26:29;45.03;;;26.52;;
40951;SDS011;26682;51.660;19.338;2023-02-22T17:29:11;49.10;;;25.92;;
40951;SDS011;26682;51.660;19.338;2023-02-22T17:31:56;42.78;;;22.35;;
40951;SDS011;26682;51.660;19.338;2023-02-22T17:34:39;42.00;;;23.80;;
40951;SDS011;26682;51.660;19.338;2023-02-22T17:37:22;41.38;;;23.25;;
40951;SDS011;26682;51.660;19.338;2023-02-22T17:40:06;47.65;;;25.40;;
40951;SDS011;26682;51.660;19.338;2023-02-22T17:42:50;48.42;;;25.95;;
40951;SDS011;26682;51.660;19.338;2023-02-22T17:45:39;44.45;;;24.27;;
40951;SDS011;26682;51.660;19.338;2023-02-22T17:48:22;46.38;;;25.52;;
40951;SDS011;26682;51.660;19.338;2023-02-22T17:51:07;47.15;;;26.45;;
40951;SDS011;26682;51.660;19.338;2023-02-22T17:53:51;51.73;;;29.13;;
40951;SDS011;26682;51.660;19.338;2023-02-22T17:56:34;48.22;;;28.30;;
40951;SDS011;26682;51.660;19.338;2023-02-22T17:59:18;52.55;;;29.27;;
40951;SDS011;26682;51.660;19.338;2023-02-22T18:02:01;57.03;;;28.98;;
40951;SDS011;26682;51.660;19.338;2023-02-22T18:04:44;51.33;;;29.98;;
40951;SDS011;26682;51.660;19.338;2023-02-22T18:07:27;46.90;;;28.60;;
40951;SDS011;26682;51.660;19.338;2023-02-22T18:10:12;45.45;;;26.13;;
40951;SDS011;26682;51.660;19.338;2023-02-22T18:12:56;39.45;;;23.27;;
40951;SDS011;26682;51.660;19.338;2023-02-22T18:15:43;43.53;;;25.20;;
40951;SDS011;26682;51.660;19.338;2023-02-22T18:18:27;40.60;;;24.60;;
40951;SDS011;26682;51.660;19.338;2023-02-22T18:21:09;44.10;;;24.75;;
40951;SDS011;26682;51.660;19.338;2023-02-22T18:23:55;46.20;;;25.13;;
40951;SDS011;26682;51.660;19.338;2023-02-22T18:26:39;41.92;;;24.23;;
40951;SDS011;26682;51.660;19.338;2023-02-22T18:29:21;41.72;;;24.02;;
40951;SDS011;26682;51.660;19.338;2023-02-22T18:32:04;39.30;;;23.95;;
40951;SDS011;26682;51.660;19.338;2023-02-22T18:34:53;45.60;;;25.52;;
40951;SDS011;26682;51.660;19.338;2023-02-22T18:37:36;40.67;;;24.20;;